createdAt,value
2022-09-12T00:02:39.912Z,5.72
2022-09-12T00:07:41.600Z,4.28
2022-09-12T00:12:43.334Z,4.43
2022-09-12T00:17:45.056Z,5.15
2022-09-12T00:22:46.851Z,4.88
2022-09-12T00:27:48.668Z,5.05
2022-09-12T00:32:51.504Z,5.53
2022-09-12T00:37:53.185Z,6.15
2022-09-12T00:42:54.864Z,4.60
2022-09-12T00:48:00.741Z,4.95
2022-09-12T00:53:06.400Z,4.75
2022-09-12T00:58:17.045Z,5.38
2022-09-12T01:03:22.037Z,6.53
2022-09-12T01:08:25.828Z,5.75
2022-09-12T01:13:28.762Z,5.68
2022-09-12T01:18:57.028Z,5.35
2022-09-12T01:24:26.461Z,4.80
2022-09-12T01:29:56.543Z,4.93
2022-09-12T01:40:23.291Z,5.50
2022-09-12T01:45:33.760Z,4.85
2022-09-12T01:50:44.054Z,4.75
2022-09-12T01:55:51.375Z,5.40
2022-09-12T02:01:04.908Z,6.18
2022-09-12T02:06:19.289Z,6.45
2022-09-12T02:11:21.667Z,7.32
2022-09-12T02:16:34.201Z,6.07
2022-09-12T02:21:39.912Z,6.00
2022-09-12T02:26:47.984Z,6.65
2022-09-12T02:31:59.944Z,6.78
2022-09-12T02:37:05.928Z,7.93
2022-09-12T02:42:07.837Z,6.20
2022-09-12T02:47:29.863Z,8.38
2022-09-12T02:52:32.126Z,7.55
2022-09-12T02:57:33.920Z,6.70
2022-09-12T03:02:57.638Z,6.22
2022-09-12T03:08:15.916Z,9.73
2022-09-12T03:13:26.815Z,7.38
2022-09-12T03:18:28.464Z,8.68
2022-09-12T03:23:40.663Z,8.27
2022-09-12T03:28:45.449Z,7.90
2022-09-12T03:33:47.236Z,7.97
2022-09-12T03:38:48.965Z,9.07
2022-09-12T03:43:50.717Z,11.02
2022-09-12T03:48:52.487Z,9.70
2022-09-12T03:53:54.496Z,12.00
2022-09-12T03:58:56.216Z,11.60
2022-09-12T04:03:57.959Z,11.25
2022-09-12T04:08:59.845Z,10.90
2022-09-12T04:14:01.649Z,10.90
2022-09-12T04:19:03.688Z,7.93
2022-09-12T04:24:05.589Z,11.73
2022-09-12T04:29:12.677Z,9.80
2022-09-12T04:34:15.524Z,14.27
2022-09-12T04:39:17.261Z,12.15
2022-09-12T04:44:18.992Z,12.85
2022-09-12T04:49:20.795Z,14.35
2022-09-12T04:54:22.493Z,15.50
2022-09-12T04:59:24.307Z,14.18
2022-09-12T05:04:26.067Z,14.38
2022-09-12T05:09:27.812Z,12.15
2022-09-12T05:14:29.778Z,15.10
2022-09-12T05:19:33.563Z,14.63
2022-09-12T05:24:35.516Z,13.55
2022-09-12T05:29:37.211Z,13.98
2022-09-12T05:34:40.152Z,14.23
2022-09-12T05:39:41.877Z,11.80
2022-09-12T05:44:43.595Z,12.48
2022-09-12T05:49:47.897Z,11.70
2022-09-12T05:54:49.678Z,15.13
2022-09-12T05:59:51.478Z,12.75
2022-09-12T06:04:53.260Z,14.60
2022-09-12T06:09:55.065Z,10.88
2022-09-12T06:14:56.997Z,11.80
2022-09-12T06:19:59.452Z,15.60
2022-09-12T06:25:01.275Z,11.60
2022-09-12T06:30:03.231Z,12.85
2022-09-12T06:35:05.520Z,12.55
2022-09-12T06:40:08.506Z,11.73
2022-09-12T06:45:11.502Z,12.43
2022-09-12T06:50:13.361Z,12.90
2022-09-12T06:55:19.466Z,13.20
2022-09-12T07:00:22.090Z,14.48
2022-09-12T07:05:23.805Z,11.77
2022-09-12T07:10:25.588Z,12.07
2022-09-12T07:15:27.423Z,10.82
2022-09-12T07:20:29.701Z,11.25
2022-09-12T07:25:31.412Z,12.43
2022-09-12T07:30:33.189Z,12.43
2022-09-12T07:35:35.128Z,13.23
2022-09-12T07:40:36.833Z,11.15
2022-09-12T07:45:41.765Z,11.52
2022-09-12T07:50:45.203Z,10.15
2022-09-12T07:55:56.292Z,8.55
2022-09-12T08:01:05.786Z,12.43
2022-09-12T08:06:15.682Z,9.23
2022-09-12T08:11:20.032Z,8.13
2022-09-12T08:16:24.096Z,7.88
2022-09-12T08:21:31.133Z,8.65
2022-09-12T08:26:34.670Z,7.85
2022-09-12T08:31:37.004Z,7.00
2022-09-12T08:36:38.746Z,7.32
2022-09-12T08:41:45.758Z,5.45
2022-09-12T08:47:18.402Z,5.82
2022-09-12T08:52:26.538Z,6.88
2022-09-12T08:57:28.445Z,6.40
2022-09-12T09:02:53.335Z,4.90
2022-09-12T09:08:22.695Z,3.10
2022-09-12T09:14:14.916Z,4.80
2022-09-12T09:19:25.232Z,4.80
2022-09-12T09:24:55.185Z,4.10
2022-09-12T09:29:57.407Z,4.90
2022-09-12T09:35:00.501Z,3.28
2022-09-12T09:40:14.297Z,2.83
2022-09-12T09:45:20.663Z,4.32
2022-09-12T09:50:22.468Z,3.20
2022-09-12T09:55:30.984Z,3.65
2022-09-12T10:00:35.225Z,3.00
2022-09-12T10:05:52.845Z,3.00
2022-09-12T10:11:17.393Z,3.33
2022-09-12T10:16:21.976Z,3.25
2022-09-12T10:21:41.344Z,1.73
2022-09-12T10:26:52.251Z,2.60
2022-09-12T10:31:59.398Z,2.97
2022-09-12T10:37:31.814Z,3.58
2022-09-12T10:42:54.585Z,2.17
2022-09-12T10:48:05.463Z,7.22
2022-09-12T10:53:34.494Z,3.00
2022-09-12T10:58:36.687Z,3.17
2022-09-12T11:04:05.203Z,2.35
2022-09-12T11:09:13.053Z,2.33
2022-09-12T11:14:28.986Z,2.95
2022-09-12T11:19:59.490Z,3.85
2022-09-12T11:25:07.195Z,3.25
2022-09-12T11:30:16.187Z,4.38
2022-09-12T11:35:29.474Z,4.95
2022-09-12T11:40:50.413Z,5.22
2022-09-12T11:45:53.263Z,4.90
2022-09-12T11:50:55.342Z,3.42
2022-09-12T11:56:09.356Z,2.75
2022-09-12T12:01:29.925Z,3.33
2022-09-12T12:06:35.733Z,4.15
2022-09-12T12:11:43.675Z,4.47
2022-09-12T12:16:46.258Z,3.17
2022-09-12T12:21:51.945Z,3.88
2022-09-12T12:26:57.356Z,3.28
2022-09-12T12:32:04.844Z,7.30
2022-09-12T12:37:22.069Z,3.00
2022-09-12T12:42:33.324Z,2.78
2022-09-12T12:47:37.848Z,2.85
2022-09-12T12:52:54.084Z,4.10
2022-09-12T12:58:03.570Z,2.17
2022-09-12T13:03:08.169Z,2.40
2022-09-12T13:08:32.294Z,3.90
2022-09-12T13:13:57.050Z,3.30
2022-09-12T13:19:04.546Z,2.17
2022-09-12T13:24:17.103Z,2.70
2022-09-12T13:29:23.563Z,4.28
2022-09-12T13:34:34.608Z,2.63
2022-09-12T13:40:05.799Z,2.65
2022-09-12T13:45:11.292Z,3.88
2022-09-12T13:50:28.154Z,1.98
2022-09-12T13:55:31.889Z,3.13
2022-09-12T14:00:35.044Z,2.15
2022-09-12T14:05:40.260Z,3.10
2022-09-12T14:10:44.389Z,2.10
2022-09-12T14:15:50.156Z,3.15
2022-09-12T14:20:54.105Z,2.33
2022-09-12T14:25:59.043Z,3.50
2022-09-12T14:31:15.684Z,4.45
2022-09-12T14:36:32.570Z,2.78
2022-09-12T14:41:40.765Z,1.85
2022-09-12T14:46:44.407Z,2.95
2022-09-12T14:51:51.904Z,2.30
2022-09-12T14:57:39.352Z,3.95
2022-09-12T15:02:44.730Z,3.03
2022-09-12T15:07:56.699Z,2.78
2022-09-12T15:13:10.847Z,3.15
2022-09-12T15:18:13.709Z,3.55
2022-09-12T15:23:40.142Z,3.22
2022-09-12T15:28:42.154Z,3.35
2022-09-12T15:33:43.970Z,2.75
2022-09-12T15:38:47.351Z,2.47
2022-09-12T15:43:50.538Z,3.25
2022-09-12T15:48:52.264Z,2.80
2022-09-12T15:53:54.098Z,2.28
2022-09-12T15:59:00.228Z,3.83
2022-09-12T16:04:03.330Z,3.85
2022-09-12T16:09:05.025Z,4.03
2022-09-12T16:14:06.807Z,2.38
2022-09-12T16:19:09.979Z,3.47
2022-09-12T16:24:11.754Z,2.67
2022-09-12T16:29:14.467Z,3.17
2022-09-12T16:34:16.181Z,5.03
2022-09-12T16:39:17.912Z,4.00
2022-09-12T16:44:19.976Z,3.60
2022-09-12T16:49:21.796Z,6.18
2022-09-12T16:54:23.744Z,3.22
2022-09-12T16:59:25.447Z,3.97
2022-09-12T17:04:27.421Z,3.75
2022-09-12T17:09:29.431Z,4.40
2022-09-12T17:14:31.266Z,5.68
2022-09-12T17:19:33.023Z,4.90
2022-09-12T17:24:35.075Z,7.80
2022-09-12T17:29:38.517Z,4.35
2022-09-12T17:34:40.330Z,4.75
2022-09-12T17:39:42.185Z,4.40
2022-09-12T17:44:44.010Z,6.32
2022-09-12T17:49:45.777Z,6.93
2022-09-12T17:54:47.502Z,8.65
2022-09-12T17:59:49.309Z,6.50
2022-09-12T18:04:51.037Z,6.50
2022-09-12T18:09:53.087Z,7.10
2022-09-12T18:14:54.815Z,6.38
2022-09-12T18:19:56.753Z,7.18
2022-09-12T18:24:58.816Z,8.18
2022-09-12T18:30:19.993Z,7.68
2022-09-12T18:35:22.375Z,7.10
2022-09-12T18:40:24.206Z,9.88
2022-09-12T18:45:26.406Z,8.10
2022-09-12T18:50:28.252Z,9.23
2022-09-12T18:55:32.618Z,7.80
2022-09-12T19:00:34.454Z,9.88
2022-09-12T19:05:36.273Z,10.95
2022-09-12T19:10:37.986Z,9.63
2022-09-12T19:15:41.127Z,9.43
2022-09-12T19:20:43.084Z,10.23
2022-09-12T19:25:45.559Z,9.05
2022-09-12T19:30:49.995Z,11.50
2022-09-12T19:35:52.447Z,11.30
2022-09-12T19:41:02.377Z,8.77
2022-09-12T19:46:05.347Z,9.85
2022-09-12T19:51:07.101Z,14.73
2022-09-12T19:56:10.345Z,8.98
2022-09-12T20:01:21.077Z,9.45
2022-09-12T20:06:23.246Z,8.07
2022-09-12T20:11:25.730Z,11.25
2022-09-12T20:16:29.487Z,8.98
2022-09-12T20:21:33.989Z,11.25
2022-09-12T20:26:36.144Z,10.18
2022-09-12T20:31:39.704Z,10.00
2022-09-12T20:36:41.776Z,9.27
2022-09-12T20:41:43.725Z,9.75
2022-09-12T20:46:45.632Z,7.85
2022-09-12T20:51:48.381Z,9.75
2022-09-12T20:56:50.081Z,9.90
2022-09-12T21:01:52.942Z,9.00
2022-09-12T21:06:54.798Z,9.48
2022-09-12T21:11:56.808Z,9.70
2022-09-12T21:16:58.776Z,9.57
2022-09-12T21:22:00.870Z,10.93
2022-09-12T21:27:04.553Z,9.07
2022-09-12T21:32:09.025Z,9.20
2022-09-12T21:37:13.222Z,9.00
2022-09-12T21:42:14.922Z,10.38
2022-09-12T21:47:17.139Z,8.50
2022-09-12T21:52:18.848Z,7.05
2022-09-12T21:57:20.540Z,7.88
2022-09-12T22:02:22.996Z,10.88
2022-09-12T22:07:25.790Z,8.77
2022-09-12T22:12:28.681Z,7.80
2022-09-12T22:17:30.373Z,6.95
2022-09-12T22:22:52.833Z,8.10
2022-09-12T22:27:55.077Z,6.30
2022-09-12T22:32:56.754Z,6.47
2022-09-12T22:37:58.449Z,9.27
2022-09-12T22:43:01.169Z,9.27
2022-09-12T22:48:06.219Z,9.07
2022-09-12T22:53:10.774Z,6.55
2022-09-12T22:58:12.660Z,6.75
2022-09-12T23:03:14.573Z,6.43
2022-09-12T23:08:17.732Z,5.80
2022-09-12T23:13:19.447Z,6.22
2022-09-12T23:18:21.197Z,6.93
2022-09-12T23:23:23.077Z,6.93
2022-09-12T23:28:24.760Z,5.88
2022-09-12T23:33:28.490Z,6.55
2022-09-12T23:38:30.820Z,6.07
2022-09-12T23:43:32.750Z,7.57
2022-09-12T23:48:34.529Z,5.93
2022-09-12T23:53:36.382Z,6.68
2022-09-12T23:58:38.184Z,7.72
